Garden Hill, Illinois
Current Conditions -  °F | °C
As of 10:15 AM on Saturday 25 Oct 2014 (Local Time) from KFOA Reporting Station
Clear Clear  
Wind Chill: 19°   Ceiling: Unl
Heat Index: 19°   Visibility: 10mi
Dew Point: 15°   Wind: 8mph
Humidity: 77%   Direction: 280°W
Pressure: 30.03"   Gusts: NA
Location:  38.6949°N, 88.6407°W
Report Text: KFOA 251515Z AUTO 28007KT 10SM CLR 19/15 A3003 RMK AO2 T01900148
Loading
Personal Weather Stations






























Interactive Weather Map
Tropical Storm Tracking
New forecast layout! Learn more

10-Day Weather Forecast

Advertisements
Track Severe Weather on mobile